sensor_id;sensor_type;location;lat;lon;timestamp;pressure;altitude;pressure_sealevel;temperature;humidity
48404;BME280;34202;52.536;6.042;2023-04-21T00:02:25;101749.30;;;8.65;95.55
48404;BME280;34202;52.536;6.042;2023-04-21T00:07:26;101743.62;;;8.66;96.16
48404;BME280;34202;52.536;6.042;2023-04-21T00:12:26;101734.27;;;8.66;96.80
48404;BME280;34202;52.536;6.042;2023-04-21T00:17:26;101722.66;;;8.68;97.45
48404;BME280;34202;52.536;6.042;2023-04-21T00:22:27;101710.93;;;8.70;98.21
48404;BME280;34202;52.536;6.042;2023-04-21T00:27:27;101699.55;;;8.73;98.80
48404;BME280;34202;52.536;6.042;2023-04-21T00:32:27;101690.41;;;8.75;99.07
48404;BME280;34202;52.536;6.042;2023-04-21T00:37:27;101675.18;;;8.77;99.59
48404;BME280;34202;52.536;6.042;2023-04-21T00:42:28;101664.13;;;8.79;99.98
48404;BME280;34202;52.536;6.042;2023-04-21T00:47:28;101657.39;;;8.80;99.65
48404;BME280;34202;52.536;6.042;2023-04-21T00:52:28;101653.41;;;8.80;99.68
48404;BME280;34202;52.536;6.042;2023-04-21T00:57:30;101640.58;;;8.80;99.43
48404;BME280;34202;52.536;6.042;2023-04-21T01:02:31;101634.81;;;8.79;99.42
48404;BME280;34202;52.536;6.042;2023-04-21T01:07:31;101633.07;;;8.79;99.54
48404;BME280;34202;52.536;6.042;2023-04-21T01:12:31;101624.52;;;8.78;99.61
48404;BME280;34202;52.536;6.042;2023-04-21T01:17:32;101623.98;;;8.77;99.60
48404;BME280;34202;52.536;6.042;2023-04-21T01:22:32;101620.85;;;8.76;99.47
48404;BME280;34202;52.536;6.042;2023-04-21T01:27:32;101620.80;;;8.74;99.15
48404;BME280;34202;52.536;6.042;2023-04-21T01:32:32;101617.10;;;8.73;99.11
48404;BME280;34202;52.536;6.042;2023-04-21T01:37:33;101616.00;;;8.70;99.41
48404;BME280;34202;52.536;6.042;2023-04-21T01:42:35;101620.08;;;8.67;99.07
48404;BME280;34202;52.536;6.042;2023-04-21T01:47:35;101617.56;;;8.64;99.15
48404;BME280;34202;52.536;6.042;2023-04-21T01:52:35;101619.61;;;8.63;99.05
48404;BME280;34202;52.536;6.042;2023-04-21T01:57:36;101616.98;;;8.62;99.05
48404;BME280;34202;52.536;6.042;2023-04-21T02:02:36;101618.02;;;8.62;99.12
48404;BME280;34202;52.536;6.042;2023-04-21T02:07:36;101622.39;;;8.63;99.26
48404;BME280;34202;52.536;6.042;2023-04-21T02:12:36;101629.75;;;8.65;99.51
48404;BME280;34202;52.536;6.042;2023-04-21T02:17:37;101631.73;;;8.68;99.70
48404;BME280;34202;52.536;6.042;2023-04-21T02:22:38;101635.59;;;8.69;99.86
48404;BME280;34202;52.536;6.042;2023-04-21T02:27:38;101634.23;;;8.71;99.70
48404;BME280;34202;52.536;6.042;2023-04-21T02:32:38;101630.13;;;8.73;99.80
48404;BME280;34202;52.536;6.042;2023-04-21T02:37:39;101625.84;;;8.75;99.92
48404;BME280;34202;52.536;6.042;2023-04-21T02:42:39;101621.71;;;8.76;99.84
48404;BME280;34202;52.536;6.042;2023-04-21T02:47:39;101622.97;;;8.78;99.95
48404;BME280;34202;52.536;6.042;2023-04-21T02:52:40;101619.70;;;8.79;99.86
48404;BME280;34202;52.536;6.042;2023-04-21T02:57:40;101624.13;;;8.82;100.00
48404;BME280;34202;52.536;6.042;2023-04-21T03:02:40;101618.48;;;8.86;99.98
48404;BME280;34202;52.536;6.042;2023-04-21T03:07:41;101624.80;;;8.88;100.00
48404;BME280;34202;52.536;6.042;2023-04-21T03:12:41;101625.90;;;8.90;100.00
48404;BME280;34202;52.536;6.042;2023-04-21T03:17:41;101626.36;;;8.95;100.00
48404;BME280;34202;52.536;6.042;2023-04-21T03:22:42;101631.03;;;9.01;100.00
48404;BME280;34202;52.536;6.042;2023-04-21T03:27:42;101633.77;;;9.06;100.00
48404;BME280;34202;52.536;6.042;2023-04-21T03:32:42;101635.48;;;9.12;100.00
48404;BME280;34202;52.536;6.042;2023-04-21T03:37:43;101631.95;;;9.16;100.00
48404;BME280;34202;52.536;6.042;2023-04-21T03:42:43;101636.05;;;9.21;100.00
48404;BME280;34202;52.536;6.042;2023-04-21T03:47:43;101636.48;;;9.24;100.00
48404;BME280;34202;52.536;6.042;2023-04-21T03:52:43;101635.34;;;9.27;100.00
48404;BME280;34202;52.536;6.042;2023-04-21T03:57:44;101637.34;;;9.31;100.00
48404;BME280;34202;52.536;6.042;2023-04-21T04:02:44;101635.45;;;9.32;100.00
48404;BME280;34202;52.536;6.042;2023-04-21T04:07:44;101633.27;;;9.34;100.00
48404;BME280;34202;52.536;6.042;2023-04-21T04:12:44;101632.59;;;9.36;100.00
48404;BME280;34202;52.536;6.042;2023-04-21T04:17:45;101633.86;;;9.37;100.00
48404;BME280;34202;52.536;6.042;2023-04-21T04:22:45;101629.36;;;9.39;100.00
48404;BME280;34202;52.536;6.042;2023-04-21T04:27:45;101626.78;;;9.39;100.00
48404;BME280;34202;52.536;6.042;2023-04-21T04:32:48;101624.39;;;9.40;100.00
48404;BME280;34202;52.536;6.042;2023-04-21T04:37:48;101623.88;;;9.41;99.98
48404;BME280;34202;52.536;6.042;2023-04-21T04:42:49;101624.07;;;9.42;100.00
48404;BME280;34202;52.536;6.042;2023-04-21T04:47:50;101630.67;;;9.42;100.00
48404;BME280;34202;52.536;6.042;2023-04-21T04:52:50;101623.20;;;9.42;100.00
48404;BME280;34202;52.536;6.042;2023-04-21T04:57:50;101625.42;;;9.42;99.99
48404;BME280;34202;52.536;6.042;2023-04-21T05:02:51;101631.89;;;9.42;99.98
48404;BME280;34202;52.536;6.042;2023-04-21T05:07:51;101635.38;;;9.42;99.99
48404;BME280;34202;52.536;6.042;2023-04-21T05:12:51;101635.02;;;9.43;99.95
48404;BME280;34202;52.536;6.042;2023-04-21T05:17:51;101637.85;;;9.44;99.89
48404;BME280;34202;52.536;6.042;2023-04-21T05:22:52;101642.54;;;9.44;99.89
48404;BME280;34202;52.536;6.042;2023-04-21T05:27:52;101637.34;;;9.45;99.98
48404;BME280;34202;52.536;6.042;2023-04-21T05:32:52;101644.11;;;9.45;99.98
48404;BME280;34202;52.536;6.042;2023-04-21T05:37:52;101644.30;;;9.46;99.99
48404;BME280;34202;52.536;6.042;2023-04-21T05:42:53;101642.44;;;9.48;99.99
48404;BME280;34202;52.536;6.042;2023-04-21T05:47:53;101645.83;;;9.51;100.00
48404;BME280;34202;52.536;6.042;2023-04-21T05:52:53;101639.64;;;9.54;100.00
48404;BME280;34202;52.536;6.042;2023-04-21T05:57:53;101640.93;;;9.57;100.00
48404;BME280;34202;52.536;6.042;2023-04-21T06:02:54;101647.80;;;9.61;100.00
48404;BME280;34202;52.536;6.042;2023-04-21T06:07:54;101647.02;;;9.65;100.00
48404;BME280;34202;52.536;6.042;2023-04-21T06:12:55;101651.66;;;9.70;100.00
48404;BME280;34202;52.536;6.042;2023-04-21T06:17:55;101644.48;;;9.76;100.00
48404;BME280;34202;52.536;6.042;2023-04-21T06:22:55;101648.45;;;9.82;100.00
48404;BME280;34202;52.536;6.042;2023-04-21T06:27:56;101640.27;;;9.89;100.00
48404;BME280;34202;52.536;6.042;2023-04-21T06:32:56;101645.09;;;9.95;100.00
48404;BME280;34202;52.536;6.042;2023-04-21T06:37:56;101641.61;;;10.02;100.00
48404;BME280;34202;52.536;6.042;2023-04-21T06:42:56;101641.80;;;10.11;100.00
48404;BME280;34202;52.536;6.042;2023-04-21T06:47:57;101637.89;;;10.24;100.00
48404;BME280;34202;52.536;6.042;2023-04-21T06:52:57;101635.02;;;10.35;100.00
48404;BME280;34202;52.536;6.042;2023-04-21T06:57:57;101617.48;;;10.46;100.00
48404;BME280;34202;52.536;6.042;2023-04-21T07:02:57;101610.02;;;10.56;100.00
48404;BME280;34202;52.536;6.042;2023-04-21T07:07:58;101617.63;;;10.62;99.94
48404;BME280;34202;52.536;6.042;2023-04-21T07:13:01;101613.05;;;10.69;99.82
48404;BME280;34202;52.536;6.042;2023-04-21T07:18:01;101612.85;;;10.77;99.64
48404;BME280;34202;52.536;6.042;2023-04-21T07:23:01;101616.11;;;10.84;99.21
48404;BME280;34202;52.536;6.042;2023-04-21T07:28:02;101619.33;;;10.89;98.85
48404;BME280;34202;52.536;6.042;2023-04-21T07:33:03;101620.95;;;10.92;98.54
48404;BME280;34202;52.536;6.042;2023-04-21T07:38:03;101620.48;;;10.95;98.33
48404;BME280;34202;52.536;6.042;2023-04-21T07:43:03;101616.90;;;10.99;98.13
48404;BME280;34202;52.536;6.042;2023-04-21T07:48:04;101612.10;;;11.03;98.02
48404;BME280;34202;52.536;6.042;2023-04-21T07:53:05;101616.39;;;11.11;98.05
48404;BME280;34202;52.536;6.042;2023-04-21T07:58:05;101611.16;;;11.21;98.46
48404;BME280;34202;52.536;6.042;2023-04-21T08:03:06;101609.64;;;11.35;98.60
48404;BME280;34202;52.536;6.042;2023-04-21T08:08:06;101609.33;;;11.48;98.49
48404;BME280;34202;52.536;6.042;2023-04-21T08:13:07;101606.36;;;11.59;98.15
48404;BME280;34202;52.536;6.042;2023-04-21T08:18:07;101606.14;;;11.69;97.68
48404;BME280;34202;52.536;6.042;2023-04-21T08:23:08;101608.02;;;11.78;97.39
48404;BME280;34202;52.536;6.042;2023-04-21T08:28:08;101609.58;;;11.89;97.15
48404;BME280;34202;52.536;6.042;2023-04-21T08:33:08;101616.55;;;12.00;96.60
48404;BME280;34202;52.536;6.042;2023-04-21T08:38:12;101610.42;;;12.12;96.34
48404;BME280;34202;52.536;6.042;2023-04-21T08:43:12;101615.97;;;12.23;95.87
48404;BME280;34202;52.536;6.042;2023-04-21T08:48:12;101613.67;;;12.36;95.75
48404;BME280;34202;52.536;6.042;2023-04-21T08:53:18;101607.92;;;12.51;95.48
48404;BME280;34202;52.536;6.042;2023-04-21T08:58:19;101604.41;;;12.66;95.23
48404;BME280;34202;52.536;6.042;2023-04-21T09:03:21;101602.42;;;12.78;94.58
48404;BME280;34202;52.536;6.042;2023-04-21T09:08:25;101607.59;;;12.87;93.87
48404;BME280;34202;52.536;6.042;2023-04-21T09:13:32;101608.89;;;12.96;93.74
48404;BME280;34202;52.536;6.042;2023-04-21T09:18:32;101604.25;;;13.05;93.27
48404;BME280;34202;52.536;6.042;2023-04-21T09:23:46;101602.77;;;13.15;92.78
48404;BME280;34202;52.536;6.042;2023-04-21T09:28:47;101601.31;;;13.28;92.37
48404;BME280;34202;52.536;6.042;2023-04-21T09:33:48;101597.02;;;13.39;91.68
48404;BME280;34202;52.536;6.042;2023-04-21T09:38:59;101599.94;;;13.54;91.43
48404;BME280;34202;52.536;6.042;2023-04-21T09:44:00;101594.58;;;13.63;90.08
48404;BME280;34202;52.536;6.042;2023-04-21T09:49:03;101598.96;;;13.67;89.57
48404;BME280;34202;52.536;6.042;2023-04-21T09:54:16;101594.27;;;13.69;88.89
48404;BME280;34202;52.536;6.042;2023-04-21T09:59:18;101592.48;;;13.64;87.90
48404;BME280;34202;52.536;6.042;2023-04-21T10:04:19;101585.30;;;13.63;87.84
48404;BME280;34202;52.536;6.042;2023-04-21T10:09:22;101584.59;;;13.61;87.68
48404;BME280;34202;52.536;6.042;2023-04-21T10:14:24;101581.45;;;13.62;87.52
48404;BME280;34202;52.536;6.042;2023-04-21T10:19:27;101578.13;;;13.62;87.61
48404;BME280;34202;52.536;6.042;2023-04-21T10:24:28;101572.56;;;13.67;87.68
48404;BME280;34202;52.536;6.042;2023-04-21T10:29:29;101565.95;;;13.74;87.66
48404;BME280;34202;52.536;6.042;2023-04-21T10:34:34;101556.55;;;13.84;87.95
48404;BME280;34202;52.536;6.042;2023-04-21T10:44:36;101553.35;;;14.14;88.21
48404;BME280;34202;52.536;6.042;2023-04-21T10:49:40;101547.62;;;14.33;88.09
48404;BME280;34202;52.536;6.042;2023-04-21T10:54:41;101542.58;;;14.50;87.39
48404;BME280;34202;52.536;6.042;2023-04-21T10:59:43;101537.03;;;14.66;86.47
48404;BME280;34202;52.536;6.042;2023-04-21T11:04:43;101536.86;;;14.79;85.96
48404;BME280;34202;52.536;6.042;2023-04-21T11:09:47;101538.09;;;14.89;85.47
48404;BME280;34202;52.536;6.042;2023-04-21T11:14:49;101532.66;;;15.00;85.11
48404;BME280;34202;52.536;6.042;2023-04-21T11:19:50;101528.96;;;15.06;84.00
48404;BME280;34202;52.536;6.042;2023-04-21T11:24:57;101526.15;;;15.12;83.72
48404;BME280;34202;52.536;6.042;2023-04-21T11:30:01;101518.27;;;15.17;84.03
48404;BME280;34202;52.536;6.042;2023-04-21T11:35:02;101514.22;;;15.21;83.22
48404;BME280;34202;52.536;6.042;2023-04-21T11:40:03;101510.55;;;15.16;82.56
48404;BME280;34202;52.536;6.042;2023-04-21T11:45:05;101504.41;;;15.12;82.51
48404;BME280;34202;52.536;6.042;2023-04-21T11:50:05;101501.10;;;15.02;82.21
48404;BME280;34202;52.536;6.042;2023-04-21T11:55:13;101500.05;;;14.94;82.81
48404;BME280;34202;52.536;6.042;2023-04-21T12:00:19;101503.75;;;14.82;82.92
48404;BME280;34202;52.536;6.042;2023-04-21T12:05:21;101507.59;;;14.72;83.55
48404;BME280;34202;52.536;6.042;2023-04-21T12:10:22;101505.84;;;14.64;84.07
48404;BME280;34202;52.536;6.042;2023-04-21T12:15:22;101501.29;;;14.61;84.72
48404;BME280;34202;52.536;6.042;2023-04-21T12:20:23;101490.77;;;14.58;85.19
48404;BME280;34202;52.536;6.042;2023-04-21T12:25:24;101481.49;;;14.57;85.89
48404;BME280;34202;52.536;6.042;2023-04-21T12:30:25;101471.84;;;14.57;86.39
48404;BME280;34202;52.536;6.042;2023-04-21T12:35:25;101462.70;;;14.55;86.69
48404;BME280;34202;52.536;6.042;2023-04-21T12:40:25;101455.55;;;14.56;87.32
48404;BME280;34202;52.536;6.042;2023-04-21T12:45:26;101447.12;;;14.55;87.61
48404;BME280;34202;52.536;6.042;2023-04-21T12:50:26;101432.42;;;14.55;87.88
48404;BME280;34202;52.536;6.042;2023-04-21T12:55:26;101421.04;;;14.56;88.17
48404;BME280;34202;52.536;6.042;2023-04-21T13:00:26;101406.84;;;14.56;88.20
48404;BME280;34202;52.536;6.042;2023-04-21T13:05:27;101401.79;;;14.61;88.85
48404;BME280;34202;52.536;6.042;2023-04-21T13:10:27;101396.54;;;14.66;88.96
48404;BME280;34202;52.536;6.042;2023-04-21T13:15:28;101394.95;;;14.73;89.00
48404;BME280;34202;52.536;6.042;2023-04-21T13:20:28;101389.48;;;14.80;89.35
48404;BME280;34202;52.536;6.042;2023-04-21T13:25:29;101377.04;;;14.88;89.24
48404;BME280;34202;52.536;6.042;2023-04-21T13:30:29;101372.61;;;15.02;90.12
48404;BME280;34202;52.536;6.042;2023-04-21T13:35:30;101365.20;;;15.18;89.36
48404;BME280;34202;52.536;6.042;2023-04-21T13:40:30;101353.05;;;15.31;89.04
48404;BME280;34202;52.536;6.042;2023-04-21T13:45:30;101336.67;;;15.45;88.65
48404;BME280;34202;52.536;6.042;2023-04-21T13:50:31;101334.12;;;15.60;88.24
48404;BME280;34202;52.536;6.042;2023-04-21T13:55:31;101315.29;;;15.72;87.49
48404;BME280;34202;52.536;6.042;2023-04-21T14:00:31;101298.90;;;15.82;86.88
48404;BME280;34202;52.536;6.042;2023-04-21T14:05:32;101294.77;;;15.95;86.75
48404;BME280;34202;52.536;6.042;2023-04-21T14:10:32;101288.49;;;16.10;86.32
48404;BME280;34202;52.536;6.042;2023-04-21T14:15:32;101275.72;;;16.24;86.21
48404;BME280;34202;52.536;6.042;2023-04-21T14:20:33;101264.50;;;16.39;85.78
48404;BME280;34202;52.536;6.042;2023-04-21T14:25:33;101251.89;;;16.51;84.90
48404;BME280;34202;52.536;6.042;2023-04-21T14:30:34;101237.29;;;16.54;83.60
48404;BME280;34202;52.536;6.042;2023-04-21T14:35:35;101231.67;;;16.53;83.37
48404;BME280;34202;52.536;6.042;2023-04-21T14:40:36;101227.92;;;16.57;83.22
48404;BME280;34202;52.536;6.042;2023-04-21T14:45:36;101231.88;;;16.65;83.41
48404;BME280;34202;52.536;6.042;2023-04-21T14:50:36;101221.77;;;16.73;82.95
48404;BME280;34202;52.536;6.042;2023-04-21T14:55:37;101212.34;;;16.82;82.99
48404;BME280;34202;52.536;6.042;2023-04-21T15:00:37;101206.07;;;16.92;83.14
48404;BME280;34202;52.536;6.042;2023-04-21T15:05:38;101193.83;;;17.01;83.10
48404;BME280;34202;52.536;6.042;2023-04-21T15:10:38;101180.14;;;17.10;83.25
48404;BME280;34202;52.536;6.042;2023-04-21T15:15:38;101173.17;;;17.18;83.30
48404;BME280;34202;52.536;6.042;2023-04-21T15:20:39;101165.55;;;17.22;83.08
48404;BME280;34202;52.536;6.042;2023-04-21T15:25:41;101160.47;;;17.21;82.83
48404;BME280;34202;52.536;6.042;2023-04-21T15:30:41;101150.29;;;17.19;83.04
48404;BME280;34202;52.536;6.042;2023-04-21T15:35:42;101149.97;;;17.17;83.17
48404;BME280;34202;52.536;6.042;2023-04-21T15:40:42;101148.82;;;17.13;83.33
48404;BME280;34202;52.536;6.042;2023-04-21T15:45:42;101142.59;;;17.05;83.02
48404;BME280;34202;52.536;6.042;2023-04-21T15:50:43;101131.64;;;16.97;82.70
48404;BME280;34202;52.536;6.042;2023-04-21T15:55:44;101126.16;;;16.88;82.92
48404;BME280;34202;52.536;6.042;2023-04-21T16:00:44;101141.42;;;16.75;83.05
48404;BME280;34202;52.536;6.042;2023-04-21T16:05:45;101147.73;;;16.62;83.70
48404;BME280;34202;52.536;6.042;2023-04-21T16:10:45;101138.56;;;16.53;84.22
48404;BME280;34202;52.536;6.042;2023-04-21T16:15:45;101119.39;;;16.25;84.02
48404;BME280;34202;52.536;6.042;2023-04-21T16:20:45;101108.20;;;15.94;83.81
48404;BME280;34202;52.536;6.042;2023-04-21T16:25:46;101074.34;;;15.74;81.68
48404;BME280;34202;52.536;6.042;2023-04-21T16:30:46;101065.48;;;15.65;79.80
48404;BME280;34202;52.536;6.042;2023-04-21T16:35:47;101066.95;;;15.59;79.28
48404;BME280;34202;52.536;6.042;2023-04-21T16:40:47;101065.42;;;15.53;75.67
48404;BME280;34202;52.536;6.042;2023-04-21T16:45:48;101049.33;;;15.50;75.48
48404;BME280;34202;52.536;6.042;2023-04-21T16:50:48;101040.95;;;15.45;76.68
48404;BME280;34202;52.536;6.042;2023-04-21T16:55:49;101045.91;;;15.40;77.42
48404;BME280;34202;52.536;6.042;2023-04-21T17:00:50;101038.59;;;15.36;78.42
48404;BME280;34202;52.536;6.042;2023-04-21T17:05:50;101047.73;;;15.33;79.36
48404;BME280;34202;52.536;6.042;2023-04-21T17:10:50;101047.07;;;15.29;80.13
48404;BME280;34202;52.536;6.042;2023-04-21T17:15:50;101060.59;;;15.26;80.48
48404;BME280;34202;52.536;6.042;2023-04-21T17:20:51;101050.13;;;15.21;80.81
48404;BME280;34202;52.536;6.042;2023-04-21T17:25:51;101042.27;;;15.17;81.42
48404;BME280;34202;52.536;6.042;2023-04-21T17:30:52;101034.44;;;15.12;81.86
48404;BME280;34202;52.536;6.042;2023-04-21T17:35:52;101036.77;;;15.07;82.24
48404;BME280;34202;52.536;6.042;2023-04-21T17:40:52;101034.85;;;15.03;82.34
48404;BME280;34202;52.536;6.042;2023-04-21T17:45:53;101026.48;;;14.99;82.64
48404;BME280;34202;52.536;6.042;2023-04-21T17:50:53;101020.38;;;14.95;82.69
48404;BME280;34202;52.536;6.042;2023-04-21T17:55:53;101015.88;;;14.90;82.35
48404;BME280;34202;52.536;6.042;2023-04-21T18:00:54;100987.85;;;14.88;80.81
48404;BME280;34202;52.536;6.042;2023-04-21T18:05:54;100974.87;;;14.89;80.10
48404;BME280;34202;52.536;6.042;2023-04-21T18:10:54;100975.58;;;14.88;79.29
48404;BME280;34202;52.536;6.042;2023-04-21T18:15:55;100985.23;;;14.86;78.66
48404;BME280;34202;52.536;6.042;2023-04-21T18:20:56;100992.45;;;14.83;77.79
48404;BME280;34202;52.536;6.042;2023-04-21T18:25:58;101019.10;;;14.80;76.79
48404;BME280;34202;52.536;6.042;2023-04-21T18:30:59;101005.28;;;14.75;76.89
48404;BME280;34202;52.536;6.042;2023-04-21T18:35:59;101008.84;;;14.71;77.14
48404;BME280;34202;52.536;6.042;2023-04-21T18:41:00;100996.27;;;14.66;77.56
48404;BME280;34202;52.536;6.042;2023-04-21T18:46:00;100989.46;;;14.62;78.10
48404;BME280;34202;52.536;6.042;2023-04-21T18:51:00;100987.38;;;14.59;78.75
48404;BME280;34202;52.536;6.042;2023-04-21T18:56:00;101004.89;;;14.55;79.00
48404;BME280;34202;52.536;6.042;2023-04-21T19:01:01;100999.14;;;14.52;79.47
48404;BME280;34202;52.536;6.042;2023-04-21T19:06:01;101000.89;;;14.49;79.72
48404;BME280;34202;52.536;6.042;2023-04-21T19:11:01;101008.82;;;14.43;80.23
48404;BME280;34202;52.536;6.042;2023-04-21T19:16:01;101035.45;;;14.40;80.81
48404;BME280;34202;52.536;6.042;2023-04-21T19:21:03;101078.55;;;14.36;81.62
48404;BME280;34202;52.536;6.042;2023-04-21T19:26:05;101116.56;;;14.33;81.96
48404;BME280;34202;52.536;6.042;2023-04-21T19:31:07;101124.66;;;14.21;82.23
48404;BME280;34202;52.536;6.042;2023-04-21T19:36:08;101107.42;;;13.95;82.21
48404;BME280;34202;52.536;6.042;2023-04-21T19:41:08;101080.02;;;13.74;82.48
48404;BME280;34202;52.536;6.042;2023-04-21T19:46:08;101063.25;;;13.63;82.76
48404;BME280;34202;52.536;6.042;2023-04-21T19:51:09;101056.44;;;13.58;83.12
48404;BME280;34202;52.536;6.042;2023-04-21T19:56:09;101040.54;;;13.52;82.88
48404;BME280;34202;52.536;6.042;2023-04-21T20:01:10;101036.00;;;13.48;83.03
48404;BME280;34202;52.536;6.042;2023-04-21T20:06:10;101029.38;;;13.38;82.23
48404;BME280;34202;52.536;6.042;2023-04-21T20:11:11;101028.85;;;13.28;82.00
48404;BME280;34202;52.536;6.042;2023-04-21T20:16:11;101023.60;;;13.19;81.91
48404;BME280;34202;52.536;6.042;2023-04-21T20:21:11;101024.32;;;13.05;82.17
48404;BME280;34202;52.536;6.042;2023-04-21T20:26:12;101034.44;;;12.84;82.74
48404;BME280;34202;52.536;6.042;2023-04-21T20:31:12;101037.55;;;12.62;83.48
48404;BME280;34202;52.536;6.042;2023-04-21T20:36:12;101026.02;;;12.52;84.21
48404;BME280;34202;52.536;6.042;2023-04-21T20:41:12;101025.67;;;12.45;84.74
48404;BME280;34202;52.536;6.042;2023-04-21T20:46:13;101029.48;;;12.38;85.43
48404;BME280;34202;52.536;6.042;2023-04-21T20:51:14;101028.77;;;12.32;86.18
48404;BME280;34202;52.536;6.042;2023-04-21T20:56:15;101020.38;;;12.25;87.19
48404;BME280;34202;52.536;6.042;2023-04-21T21:01:15;101008.52;;;12.23;88.41
48404;BME280;34202;52.536;6.042;2023-04-21T21:06:16;100993.69;;;12.25;89.30
48404;BME280;34202;52.536;6.042;2023-04-21T21:11:18;100999.97;;;12.25;90.00
48404;BME280;34202;52.536;6.042;2023-04-21T21:16:19;101019.52;;;12.25;90.49
48404;BME280;34202;52.536;6.042;2023-04-21T21:21:20;100985.49;;;12.24;91.37
48404;BME280;34202;52.536;6.042;2023-04-21T21:26:20;100976.05;;;12.20;91.97
48404;BME280;34202;52.536;6.042;2023-04-21T21:31:21;100949.88;;;12.15;92.51
48404;BME280;34202;52.536;6.042;2023-04-21T21:36:21;100951.44;;;12.09;93.04
48404;BME280;34202;52.536;6.042;2023-04-21T21:41:21;100933.63;;;12.04;93.50
48404;BME280;34202;52.536;6.042;2023-04-21T21:46:22;100966.77;;;12.01;93.56
48404;BME280;34202;52.536;6.042;2023-04-21T21:51:22;101024.49;;;12.02;93.72
48404;BME280;34202;52.536;6.042;2023-04-21T21:56:23;101081.71;;;12.02;94.16
48404;BME280;34202;52.536;6.042;2023-04-21T22:01:24;101088.48;;;11.96;94.07
48404;BME280;34202;52.536;6.042;2023-04-21T22:06:25;101097.67;;;11.89;93.85
48404;BME280;34202;52.536;6.042;2023-04-21T22:11:27;101114.02;;;11.82;93.60
48404;BME280;34202;52.536;6.042;2023-04-21T22:16:27;101118.17;;;11.76;93.38
48404;BME280;34202;52.536;6.042;2023-04-21T22:21:28;101121.11;;;11.71;93.37
48404;BME280;34202;52.536;6.042;2023-04-21T22:26:30;101114.27;;;11.66;93.53
48404;BME280;34202;52.536;6.042;2023-04-21T22:31:30;101102.21;;;11.62;93.66
48404;BME280;34202;52.536;6.042;2023-04-21T22:36:31;101086.31;;;11.57;93.57
48404;BME280;34202;52.536;6.042;2023-04-21T22:41:31;101082.46;;;11.54;93.91
48404;BME280;34202;52.536;6.042;2023-04-21T22:46:31;101086.81;;;11.52;94.03
48404;BME280;34202;52.536;6.042;2023-04-21T22:51:32;101082.92;;;11.45;94.03
48404;BME280;34202;52.536;6.042;2023-04-21T22:56:32;101071.66;;;11.29;94.18
48404;BME280;34202;52.536;6.042;2023-04-21T23:01:33;101061.64;;;11.19;94.72
48404;BME280;34202;52.536;6.042;2023-04-21T23:06:33;101054.11;;;11.12;95.10
48404;BME280;34202;52.536;6.042;2023-04-21T23:11:33;101047.46;;;11.10;95.33
48404;BME280;34202;52.536;6.042;2023-04-21T23:16:33;101039.10;;;11.09;95.61
48404;BME280;34202;52.536;6.042;2023-04-21T23:21:34;101032.83;;;11.08;95.67
48404;BME280;34202;52.536;6.042;2023-04-21T23:26:34;101021.67;;;11.07;95.66
48404;BME280;34202;52.536;6.042;2023-04-21T23:31:35;101012.36;;;10.98;95.64
48404;BME280;34202;52.536;6.042;2023-04-21T23:36:35;101004.50;;;10.94;95.92
48404;BME280;34202;52.536;6.042;2023-04-21T23:41:35;101008.64;;;10.88;95.96
48404;BME280;34202;52.536;6.042;2023-04-21T23:46:36;101009.12;;;10.84;96.03
48404;BME280;34202;52.536;6.042;2023-04-21T23:51:36;101015.16;;;10.77;95.99
48404;BME280;34202;52.536;6.042;2023-04-21T23:56:37;101018.52;;;10.64;95.79
